Time;durP1;ratioP1;P1;durP2;ratioP2;P2;SDS_P1;SDS_P2;PMS_P1;PMS_P2;Temp;Humidity;BMP_temperature;BMP_pressure;BME280_temperature;BME280_humidity;BME280_pressure;Samples;Min_cycle;Max_cycle;Signal;HPM_P1;HPM_P2
2021/10/03 00:01:33;;;;;;;6.43;5.47;;;16.40;99.90;;;;;;4968551;28;20457;-82
2021/10/03 00:04:01;;;;;;;6.17;5.67;;;16.40;99.90;;;;;;4985815;28;20455;-84
2021/10/03 00:06:29;;;;;;;7.30;6.03;;;16.40;99.90;;;;;;4984017;28;20460;-83
2021/10/03 00:08:56;;;;;;;5.33;4.90;;;16.40;99.90;;;;;;4984124;28;20456;-84
2021/10/03 00:11:24;;;;;;;6.23;5.70;;;16.40;99.90;;;;;;4984428;28;20456;-84
2021/10/03 00:13:51;;;;;;;7.17;5.80;;;16.20;99.90;;;;;;4981084;28;20999;-81
2021/10/03 00:16:18;;;;;;;6.17;5.67;;;16.00;99.90;;;;;;4983019;28;20460;-84
2021/10/03 00:18:45;;;;;;;5.57;5.13;;;16.00;99.90;;;;;;4983885;28;20488;-85
2021/10/03 00:21:13;;;;;;;7.03;6.10;;;16.00;99.90;;;;;;4983962;28;20463;-85
2021/10/03 00:23:40;;;;;;;9.70;5.70;;;16.00;99.90;;;;;;4990621;28;20552;-83
2021/10/03 00:26:07;;;;;;;6.60;6.10;;;16.00;99.90;;;;;;4991786;28;20459;-84
2021/10/03 00:28:34;;;;;;;5.93;5.03;;;16.00;99.90;;;;;;4992461;28;20458;-83
2021/10/03 00:31:01;;;;;;;7.40;5.63;;;15.90;99.90;;;;;;4993313;28;20448;-82
2021/10/03 00:33:28;;;;;;;5.63;5.20;;;15.80;99.90;;;;;;4992420;28;20471;-83
2021/10/03 00:35:54;;;;;;;6.37;5.77;;;15.80;99.90;;;;;;4991010;28;20829;-83
2021/10/03 00:38:23;;;;;;;5.53;5.00;;;15.60;99.90;;;;;;4992372;28;20480;-83
2021/10/03 00:40:49;;;;;;;7.30;6.60;;;15.50;99.90;;;;;;4993305;28;20455;-83
2021/10/03 00:43:16;;;;;;;6.33;5.73;;;15.50;99.90;;;;;;4993391;28;20469;-83
2021/10/03 00:45:45;;;;;;;5.73;5.23;;;15.60;99.90;;;;;;4992369;28;20448;-82
2021/10/03 00:48:12;;;;;;;6.50;5.90;;;15.60;99.90;;;;;;4992642;28;20457;-83
2021/10/03 00:50:40;;;;;;;6.43;5.93;;;15.50;99.90;;;;;;4992841;28;20460;-83
2021/10/03 00:53:07;;;;;;;6.13;5.50;;;15.50;99.90;;;;;;4992258;28;20471;-83
2021/10/03 00:55:35;;;;;;;6.30;5.80;;;15.40;99.90;;;;;;4992030;28;20459;-84
2021/10/03 00:58:02;;;;;;;5.87;5.27;;;15.50;99.90;;;;;;4992178;28;20493;-82
2021/10/03 01:00:33;;;;;;;5.97;5.40;;;15.50;99.90;;;;;;4992357;28;20458;-82
2021/10/03 01:03:01;;;;;;;5.53;5.10;;;15.50;99.90;;;;;;4992022;28;20484;-82
2021/10/03 01:05:28;;;;;;;6.13;5.60;;;15.40;99.90;;;;;;4992522;28;20452;-83
2021/10/03 01:07:56;;;;;;;5.60;5.20;;;15.50;99.90;;;;;;4992505;28;20458;-82
2021/10/03 01:10:24;;;;;;;5.33;4.93;;;15.50;99.90;;;;;;4992802;28;20458;-83
2021/10/03 01:12:56;;;;;;;5.70;5.20;;;15.60;99.90;;;;;;4992498;28;20478;-82
2021/10/03 01:15:23;;;;;;;6.57;5.93;;;15.60;99.90;;;;;;4992228;28;20458;-83
2021/10/03 01:17:50;;;;;;;5.97;5.37;;;15.70;99.90;;;;;;4991839;28;20559;-83
2021/10/03 01:20:17;;;;;;;6.63;5.77;;;15.80;99.90;;;;;;4992296;28;20455;-83
2021/10/03 01:22:45;;;;;;;7.33;6.73;;;15.90;99.90;;;;;;4991069;28;20480;-82
2021/10/03 01:25:12;;;;;;;5.40;4.90;;;16.00;99.90;;;;;;4990557;28;20453;-83
2021/10/03 01:27:39;;;;;;;6.13;5.53;;;16.10;99.90;;;;;;4991045;28;20459;-83
2021/10/03 01:30:09;;;;;;;5.00;4.60;;;16.20;99.90;;;;;;4989432;28;20445;-82
2021/10/03 01:32:36;;;;;;;5.40;5.00;;;16.30;99.90;;;;;;4991108;28;20473;-82
2021/10/03 01:35:04;;;;;;;5.47;5.00;;;16.30;99.90;;;;;;4990623;28;20452;-82
2021/10/03 01:37:32;;;;;;;5.73;5.33;;;16.40;99.90;;;;;;4997089;28;20980;-82
2021/10/03 01:40:02;;;;;;;6.60;5.70;;;16.40;99.90;;;;;;4996808;28;20461;-82
2021/10/03 01:42:29;;;;;;;5.40;4.90;;;16.50;99.90;;;;;;4996146;28;20473;-83
2021/10/03 01:44:55;;;;;;;5.50;5.00;;;16.50;99.90;;;;;;4988703;28;20459;-83
2021/10/03 01:47:22;;;;;;;6.00;5.40;;;16.50;99.90;;;;;;4989132;28;20459;-82
2021/10/03 01:49:49;;;;;;;7.17;6.50;;;16.60;99.90;;;;;;4991034;28;20451;-83
2021/10/03 01:52:17;;;;;;;6.23;5.30;;;16.60;99.90;;;;;;4990790;28;20470;-83
2021/10/03 01:54:44;;;;;;;5.27;4.77;;;16.60;99.90;;;;;;4990724;28;20458;-82
2021/10/03 01:57:12;;;;;;;6.87;6.20;;;16.60;99.90;;;;;;4990025;28;20459;-82
2021/10/03 01:59:40;;;;;;;5.27;4.20;;;16.60;99.90;;;;;;4990353;28;20488;-82
2021/10/03 02:02:07;;;;;;;6.37;5.77;;;16.60;99.90;;;;;;4990976;28;21006;-83
2021/10/03 02:04:34;;;;;;;4.33;3.93;;;16.50;99.90;;;;;;4974277;28;20465;-82
2021/10/03 02:07:00;;;;;;;5.63;4.93;;;16.50;99.90;;;;;;4990408;28;20537;-83
2021/10/03 02:09:29;;;;;;;5.60;4.37;;;16.50;99.90;;;;;;4990325;28;20455;-82
2021/10/03 02:11:57;;;;;;;6.87;6.20;;;16.50;99.90;;;;;;4989892;28;20465;-83
2021/10/03 02:14:30;;;;;;;5.70;5.20;;;16.50;99.90;;;;;;4990181;28;20456;-82
2021/10/03 02:16:59;;;;;;;6.00;5.10;;;16.40;99.90;;;;;;4989484;28;20461;-83
2021/10/03 02:19:26;;;;;;;5.73;5.13;;;16.40;99.90;;;;;;4989669;28;20490;-82
2021/10/03 02:21:54;;;;;;;7.00;5.77;;;16.40;99.90;;;;;;4989445;28;20473;-83
2021/10/03 02:24:21;;;;;;;5.67;5.17;;;16.40;99.90;;;;;;4990237;28;20463;-83
2021/10/03 02:26:48;;;;;;;6.17;5.57;;;16.40;99.90;;;;;;4990470;28;20465;-83
2021/10/03 02:29:15;;;;;;;5.80;5.30;;;16.40;99.90;;;;;;4990334;28;20446;-82
2021/10/03 02:31:43;;;;;;;5.67;5.17;;;16.40;99.90;;;;;;4990094;28;20453;-83
2021/10/03 02:34:10;;;;;;;5.03;4.53;;;16.40;99.90;;;;;;4983372;28;20456;-82
2021/10/03 02:36:37;;;;;;;6.60;4.60;;;16.40;99.90;;;;;;4990685;28;20454;-83
2021/10/03 02:39:04;;;;;;;6.33;5.30;;;16.40;99.90;;;;;;4989576;28;20871;-82
2021/10/03 02:41:31;;;;;;;6.13;5.60;;;16.30;99.90;;;;;;4989731;28;20458;-83
2021/10/03 02:44:00;;;;;;;5.67;5.17;;;16.30;99.90;;;;;;4990492;28;20459;-82
2021/10/03 02:46:27;;;;;;;5.80;5.27;;;16.30;99.90;;;;;;4989181;28;20451;-82
2021/10/03 02:48:56;;;;;;;7.07;5.23;;;16.20;99.90;;;;;;4989750;28;20448;-82
2021/10/03 02:51:24;;;;;;;5.53;5.03;;;16.10;99.90;;;;;;4989974;28;20452;-83
2021/10/03 02:53:52;;;;;;;5.70;5.30;;;16.10;99.90;;;;;;4990076;28;20481;-83
2021/10/03 02:56:22;;;;;;;5.73;5.23;;;16.00;99.90;;;;;;4990334;28;20460;-83
2021/10/03 02:58:49;;;;;;;6.50;5.40;;;16.00;99.90;;;;;;4991388;28;20487;-83
2021/10/03 03:01:17;;;;;;;8.50;6.20;;;15.90;99.90;;;;;;4994332;28;20450;-82
2021/10/03 03:03:44;;;;;;;7.60;6.00;;;15.80;99.90;;;;;;4993842;28;20476;-83
2021/10/03 03:06:12;;;;;;;6.50;5.87;;;15.80;99.90;;;;;;4993893;28;20453;-83
2021/10/03 03:08:40;;;;;;;7.33;6.73;;;15.70;99.90;;;;;;4994497;28;20458;-83
2021/10/03 03:11:07;;;;;;;6.33;5.73;;;15.70;99.90;;;;;;4994200;28;20456;-83
2021/10/03 03:13:35;;;;;;;6.00;5.50;;;15.70;99.90;;;;;;4994220;28;20978;-83
2021/10/03 03:16:01;;;;;;;6.83;5.53;;;15.70;99.90;;;;;;4994179;28;20462;-83
2021/10/03 03:18:28;;;;;;;6.50;5.17;;;15.60;99.90;;;;;;4993777;28;20845;-82
2021/10/03 03:20:55;;;;;;;9.03;5.83;;;15.60;99.90;;;;;;4994192;28;20667;-82
2021/10/03 03:23:23;;;;;;;7.90;5.53;;;15.60;99.90;;;;;;4993929;28;20480;-82
2021/10/03 03:25:50;;;;;;;5.40;4.70;;;15.50;99.90;;;;;;4993955;28;20462;-83
2021/10/03 03:28:17;;;;;;;5.77;5.27;;;15.50;99.90;;;;;;4993846;28;20460;-83
2021/10/03 03:30:44;;;;;;;6.60;5.97;;;15.50;99.90;;;;;;4993453;28;20454;-82
2021/10/03 03:33:11;;;;;;;6.50;5.10;;;15.50;99.90;;;;;;4993291;28;20480;-82
2021/10/03 03:35:38;;;;;;;7.53;5.30;;;15.50;99.90;;;;;;4993816;28;20458;-83
2021/10/03 03:38:04;;;;;;;5.20;4.80;;;15.50;99.90;;;;;;4992767;28;20447;-83
2021/10/03 03:40:32;;;;;;;5.20;4.80;;;15.50;99.90;;;;;;4990795;28;20488;-81
2021/10/03 03:42:59;;;;;;;7.67;4.80;;;15.40;99.90;;;;;;4991701;28;20473;-82
2021/10/03 03:45:26;;;;;;;5.13;4.73;;;15.50;99.90;;;;;;4992808;28;20457;-82
2021/10/03 03:47:53;;;;;;;5.83;5.33;;;15.40;99.90;;;;;;4992763;28;20461;-82
2021/10/03 03:50:20;;;;;;;7.87;7.27;;;15.40;99.90;;;;;;4993474;28;20463;-83
2021/10/03 03:52:47;;;;;;;4.90;4.50;;;15.50;99.90;;;;;;4992908;28;20482;-82
2021/10/03 03:55:14;;;;;;;7.53;5.03;;;15.40;99.90;;;;;;4993289;28;20837;-83
2021/10/03 03:57:42;;;;;;;5.50;4.83;;;15.40;99.90;;;;;;4993260;28;20462;-82
2021/10/03 04:00:11;;;;;;;5.77;5.33;;;15.40;99.90;;;;;;4992885;28;20493;-82
2021/10/03 04:02:38;;;;;;;5.77;5.37;;;15.40;99.90;;;;;;4992675;28;20989;-82
2021/10/03 04:05:06;;;;;;;5.60;4.97;;;15.50;99.90;;;;;;4992629;28;20449;-83
2021/10/03 04:07:33;;;;;;;7.03;6.03;;;15.40;99.90;;;;;;4992740;28;20984;-83
2021/10/03 04:09:59;;;;;;;8.60;6.50;;;15.40;99.90;;;;;;4992891;28;20455;-83
2021/10/03 04:12:26;;;;;;;9.33;6.00;;;15.30;99.90;;;;;;4991823;28;20876;-82
2021/10/03 04:14:54;;;;;;;6.30;5.27;;;15.40;99.90;;;;;;4992943;28;20976;-83
2021/10/03 04:17:21;;;;;;;7.07;6.37;;;15.20;99.90;;;;;;4990345;28;20458;-80
2021/10/03 04:19:48;;;;;;;7.03;6.43;;;15.00;99.90;;;;;;4980635;28;20491;-83
2021/10/03 04:22:15;;;;;;;7.93;6.27;;;15.00;99.90;;;;;;4992820;28;20468;-82
2021/10/03 04:24:41;;;;;;;7.30;5.13;;;14.90;99.90;;;;;;4992246;28;20450;-83
2021/10/03 04:27:08;;;;;;;6.40;5.80;;;15.00;99.90;;;;;;4992424;28;20459;-82
2021/10/03 04:29:35;;;;;;;5.27;4.77;;;15.00;99.90;;;;;;4992770;28;20457;-83
2021/10/03 04:32:04;;;;;;;6.20;5.60;;;15.00;99.90;;;;;;4991415;28;20474;-83
2021/10/03 04:34:30;;;;;;;5.13;4.73;;;15.00;99.90;;;;;;4991517;28;20455;-82
2021/10/03 04:36:57;;;;;;;5.53;5.03;;;15.00;99.90;;;;;;4990107;28;20448;-83
2021/10/03 04:39:25;;;;;;;5.90;5.40;;;15.00;99.90;;;;;;4991365;28;20488;-82
2021/10/03 04:41:52;;;;;;;7.53;6.63;;;15.10;99.90;;;;;;4991055;28;20479;-82
2021/10/03 04:44:19;;;;;;;6.70;5.87;;;15.10;99.90;;;;;;4991638;28;20460;-83
2021/10/03 04:46:46;;;;;;;5.80;5.30;;;15.10;99.90;;;;;;4990635;28;20471;-84
2021/10/03 04:49:14;;;;;;;4.43;4.10;;;15.20;99.90;;;;;;4991142;28;20455;-83
2021/10/03 04:51:40;;;;;;;5.57;4.90;;;15.20;99.90;;;;;;4990437;28;20455;-82
2021/10/03 04:54:07;;;;;;;5.60;5.20;;;15.20;99.90;;;;;;4990901;28;20464;-83
2021/10/03 04:56:34;;;;;;;5.73;5.23;;;15.20;99.90;;;;;;4990970;28;20448;-83
2021/10/03 04:59:01;;;;;;;6.30;4.90;;;15.20;99.90;;;;;;4990743;28;20494;-83
2021/10/03 05:01:28;;;;;;;8.10;6.30;;;14.90;99.90;;;;;;4990697;28;20447;-83
2021/10/03 05:03:54;;;;;;;5.90;5.33;;;14.90;99.90;;;;;;4990347;28;20462;-82
2021/10/03 05:06:23;;;;;;;6.23;5.63;;;15.00;99.90;;;;;;4990007;28;20475;-82
2021/10/03 05:08:49;;;;;;;5.80;5.30;;;15.10;99.90;;;;;;4990732;28;20457;-82
2021/10/03 05:11:16;;;;;;;4.73;4.33;;;15.00;99.90;;;;;;4989623;28;20449;-83
2021/10/03 05:13:43;;;;;;;6.27;5.53;;;14.60;99.90;;;;;;4990825;28;20482;-82
2021/10/03 05:16:09;;;;;;;6.00;4.87;;;14.70;99.90;;;;;;4991376;28;20443;-83
2021/10/03 05:18:37;;;;;;;6.50;5.90;;;14.80;99.90;;;;;;4992143;28;20461;-83
2021/10/03 05:21:04;;;;;;;6.50;5.83;;;14.70;99.90;;;;;;4991383;28;20485;-83
2021/10/03 05:23:34;;;;;;;7.10;6.40;;;14.80;99.90;;;;;;4991372;28;20477;-83
2021/10/03 05:26:00;;;;;;;6.40;5.80;;;14.90;99.90;;;;;;4991866;28;20533;-83
2021/10/03 05:28:27;;;;;;;5.57;5.00;;;15.00;99.90;;;;;;4992585;28;20449;-82
2021/10/03 05:30:54;;;;;;;6.47;5.97;;;15.10;99.90;;;;;;4992055;28;20464;-82
2021/10/03 05:33:21;;;;;;;7.67;5.07;;;15.20;99.90;;;;;;4992475;28;20472;-82
2021/10/03 05:35:48;;;;;;;5.67;5.27;;;15.10;99.90;;;;;;4991287;28;20459;-83
2021/10/03 05:38:14;;;;;;;5.90;5.40;;;15.10;99.90;;;;;;4991134;28;20460;-83
2021/10/03 05:40:42;;;;;;;8.20;7.50;;;15.20;99.90;;;;;;4991250;28;20484;-84
2021/10/03 05:43:09;;;;;;;5.43;4.93;;;15.30;99.90;;;;;;4990781;28;20480;-84
2021/10/03 05:45:36;;;;;;;6.53;5.93;;;15.30;99.90;;;;;;4991328;28;20540;-82
2021/10/03 05:48:03;;;;;;;6.13;5.60;;;15.40;99.90;;;;;;4991591;28;20440;-83
2021/10/03 05:50:29;;;;;;;5.87;5.33;;;15.40;99.90;;;;;;4991269;28;20459;-82
2021/10/03 05:52:56;;;;;;;5.43;4.93;;;15.50;99.90;;;;;;4991084;28;20477;-82
2021/10/03 05:55:23;;;;;;;5.63;5.13;;;15.50;99.90;;;;;;4991481;28;20452;-83
2021/10/03 05:57:51;;;;;;;7.23;5.10;;;15.50;99.90;;;;;;4988083;28;20465;-83
2021/10/03 06:00:18;;;;;;;5.90;5.40;;;15.60;99.90;;;;;;4986629;28;20491;-83
2021/10/03 06:02:45;;;;;;;5.90;5.13;;;15.60;99.90;;;;;;4987824;28;20469;-82
2021/10/03 06:05:11;;;;;;;5.77;5.27;;;15.60;99.90;;;;;;4987250;28;20455;-82
2021/10/03 06:07:38;;;;;;;4.40;4.00;;;15.70;99.90;;;;;;4987804;28;20451;-83
2021/10/03 06:10:07;;;;;;;5.33;4.83;;;15.80;99.90;;;;;;4988017;28;20457;-84
2021/10/03 06:12:34;;;;;;;4.60;4.20;;;15.80;99.90;;;;;;4987741;28;20483;-83
2021/10/03 06:15:03;;;;;;;6.03;5.27;;;15.90;99.90;;;;;;4988334;28;20828;-83
2021/10/03 06:17:29;;;;;;;4.77;4.30;;;15.90;99.90;;;;;;4989041;28;20458;-84
2021/10/03 06:19:56;;;;;;;4.47;3.67;;;15.90;99.90;;;;;;4975567;28;20490;-81
2021/10/03 06:22:25;;;;;;;5.20;4.70;;;16.00;99.90;;;;;;4977771;28;20475;-85
2021/10/03 06:24:52;;;;;;;4.97;4.57;;;16.10;99.90;;;;;;4982229;28;20457;-85
2021/10/03 06:27:19;;;;;;;4.90;4.30;;;16.20;99.90;;;;;;4980922;28;20468;-84
2021/10/03 06:29:46;;;;;;;4.40;4.07;;;16.20;99.90;;;;;;4981804;28;20954;-83
2021/10/03 06:32:14;;;;;;;6.10;5.70;;;16.10;99.90;;;;;;4980311;28;21043;-87
2021/10/03 06:34:41;;;;;;;5.30;4.90;;;16.20;99.90;;;;;;4981005;28;20460;-84
2021/10/03 06:37:07;;;;;;;6.10;4.90;;;16.40;99.90;;;;;;4981533;28;20463;-84
2021/10/03 06:39:34;;;;;;;4.93;4.43;;;16.50;99.90;;;;;;4981489;28;20485;-84
2021/10/03 06:42:01;;;;;;;3.50;3.20;;;16.70;99.90;;;;;;4981171;28;20489;-84
2021/10/03 06:44:28;;;;;;;6.10;4.40;;;16.80;99.90;;;;;;4964974;28;20460;-83
2021/10/03 06:46:54;;;;;;;4.53;4.20;;;17.00;99.90;;;;;;4961583;28;20473;-85
2021/10/03 06:49:22;;;;;;;4.20;3.80;;;17.30;99.90;;;;;;4972281;28;20454;-85
2021/10/03 06:51:49;;;;;;;3.40;3.10;;;17.40;99.80;;;;;;4981366;28;20484;-85
2021/10/03 06:54:18;;;;;;;4.47;3.97;;;17.40;99.80;;;;;;4981065;28;20506;-86
2021/10/03 06:56:45;;;;;;;4.30;3.90;;;17.70;99.90;;;;;;4979881;28;20459;-86
2021/10/03 06:59:12;;;;;;;4.20;3.80;;;17.90;99.90;;;;;;4980558;28;20470;-85
2021/10/03 07:01:39;;;;;;;3.60;3.30;;;18.00;99.10;;;;;;4979995;28;20454;-85
2021/10/03 07:04:05;;;;;;;4.47;4.07;;;18.20;99.50;;;;;;4979907;28;20452;-85
2021/10/03 07:06:33;;;;;;;4.23;3.93;;;18.40;99.20;;;;;;4980502;28;20455;-86
2021/10/03 07:09:00;;;;;;;4.63;4.23;;;18.50;99.20;;;;;;4980450;28;20451;-85
2021/10/03 07:11:27;;;;;;;4.43;4.03;;;18.60;99.10;;;;;;4980451;28;20454;-85
2021/10/03 07:13:54;;;;;;;4.17;3.80;;;18.60;98.00;;;;;;4979893;28;20455;-85
2021/10/03 07:16:21;;;;;;;4.10;3.70;;;18.70;98.00;;;;;;4980221;28;20466;-85
2021/10/03 07:18:48;;;;;;;3.90;3.50;;;18.80;98.50;;;;;;4980807;28;20452;-85
2021/10/03 07:21:14;;;;;;;4.50;4.20;;;18.80;98.00;;;;;;4961840;28;20515;-85
2021/10/03 07:23:43;;;;;;;4.13;3.83;;;18.90;98.30;;;;;;4961530;29;20472;-85
2021/10/03 07:26:11;;;;;;;4.50;4.10;;;18.90;98.00;;;;;;4980010;28;20466;-85
2021/10/03 07:28:38;;;;;;;4.47;4.07;;;18.90;97.80;;;;;;4980331;28;20972;-85
2021/10/03 07:31:05;;;;;;;5.10;4.40;;;19.00;98.40;;;;;;4980113;28;20978;-85
2021/10/03 07:33:32;;;;;;;4.93;4.53;;;19.00;98.70;;;;;;4980698;28;20490;-85
2021/10/03 07:35:59;;;;;;;4.43;3.97;;;19.00;98.30;;;;;;4980162;28;20463;-86
2021/10/03 07:38:26;;;;;;;5.93;5.33;;;19.10;98.50;;;;;;4980996;28;20456;-85
2021/10/03 07:40:54;;;;;;;3.60;3.30;;;19.20;99.10;;;;;;4980483;28;20483;-85
2021/10/03 07:43:21;;;;;;;4.00;3.70;;;19.20;98.80;;;;;;4981468;28;20471;-86
2021/10/03 07:45:47;;;;;;;4.83;4.30;;;19.30;98.90;;;;;;4982139;28;20462;-84
2021/10/03 07:48:14;;;;;;;4.60;4.30;;;19.30;98.80;;;;;;4984735;28;20829;-85
2021/10/03 07:50:41;;;;;;;4.93;4.50;;;19.30;98.30;;;;;;4984305;28;20448;-85
2021/10/03 07:53:08;;;;;;;4.00;3.70;;;19.20;98.10;;;;;;4984115;28;20494;-86
2021/10/03 07:55:35;;;;;;;4.47;4.10;;;19.40;98.50;;;;;;4983797;28;20464;-86
2021/10/03 07:58:05;;;;;;;5.30;4.00;;;19.50;98.60;;;;;;4983869;28;20459;-86
2021/10/03 08:00:32;;;;;;;3.97;3.67;;;19.60;97.50;;;;;;4983163;28;20490;-85
2021/10/03 08:02:59;;;;;;;4.43;4.03;;;19.80;96.90;;;;;;4983326;28;20847;-86
2021/10/03 08:05:26;;;;;;;3.83;3.53;;;19.90;96.40;;;;;;4983788;28;20448;-84
2021/10/03 08:07:53;;;;;;;4.40;4.10;;;20.10;96.90;;;;;;4983592;28;20552;-85
2021/10/03 08:10:20;;;;;;;4.57;4.17;;;20.10;96.40;;;;;;4982990;28;20556;-85
2021/10/03 08:12:47;;;;;;;8.53;3.77;;;20.20;95.80;;;;;;4983635;28;20486;-85
2021/10/03 08:15:16;;;;;;;3.90;3.60;;;20.30;95.90;;;;;;4982337;28;20993;-85
2021/10/03 08:17:43;;;;;;;4.20;3.80;;;20.30;95.00;;;;;;4983411;28;20822;-85
2021/10/03 08:20:10;;;;;;;4.03;3.63;;;20.40;94.60;;;;;;4982928;28;20479;-85
2021/10/03 08:22:37;;;;;;;3.00;2.80;;;20.50;94.50;;;;;;4983031;28;20463;-84
2021/10/03 08:25:05;;;;;;;4.47;4.10;;;20.60;94.90;;;;;;4982465;28;20460;-84
2021/10/03 08:27:33;;;;;;;6.33;4.17;;;20.70;95.00;;;;;;4983381;28;20499;-85
2021/10/03 08:29:59;;;;;;;3.40;3.13;;;20.90;95.70;;;;;;4982921;28;20465;-83
2021/10/03 08:32:27;;;;;;;3.57;3.27;;;20.90;94.30;;;;;;4984115;28;20484;-83
2021/10/03 08:34:55;;;;;;;4.00;3.60;;;20.90;94.80;;;;;;4983800;28;20464;-84
2021/10/03 08:37:22;;;;;;;4.40;3.90;;;21.10;95.60;;;;;;4983982;28;20516;-83
2021/10/03 08:39:49;;;;;;;3.13;2.80;;;21.20;94.60;;;;;;4983628;28;20465;-82
2021/10/03 08:42:16;;;;;;;3.60;3.30;;;21.20;93.30;;;;;;4983581;28;20482;-83
2021/10/03 08:44:43;;;;;;;3.80;3.40;;;20.90;93.60;;;;;;4983073;28;20458;-83
2021/10/03 08:47:24;;;;;;;3.73;3.43;;;20.90;93.50;;;;;;4983309;28;20472;-83
2021/10/03 08:49:54;;;;;;;3.23;2.70;;;20.90;93.30;;;;;;4982686;28;20465;-82
2021/10/03 08:52:21;;;;;;;3.30;2.93;;;20.90;93.10;;;;;;4982819;28;20473;-83
2021/10/03 08:54:48;;;;;;;3.43;2.97;;;21.00;93.20;;;;;;4982719;28;20465;-82
2021/10/03 08:57:14;;;;;;;3.37;3.17;;;21.10;92.30;;;;;;4982040;28;20454;-85
2021/10/03 09:00:05;;;;;;;3.73;3.43;;;21.10;92.70;;;;;;4983239;28;20463;-86
2021/10/03 09:02:52;;;;;;;3.83;3.50;;;20.90;92.80;;;;;;4983666;28;20473;-83
2021/10/03 09:05:20;;;;;;;2.87;2.67;;;21.00;92.10;;;;;;4983241;28;20463;-85
2021/10/03 09:08:06;;;;;;;3.63;3.07;;;20.90;91.10;;;;;;4983438;28;20459;-86
2021/10/03 09:10:57;;;;;;;3.40;3.13;;;21.00;91.20;;;;;;4982709;28;20989;-85
2021/10/03 09:13:40;;;;;;;3.43;3.20;;;20.90;91.30;;;;;;4984190;28;20888;-83
2021/10/03 09:16:10;;;;;;;3.30;3.00;;;20.90;91.60;;;;;;4971964;28;20453;-85
2021/10/03 09:18:43;;;;;;;4.77;4.13;;;20.90;91.40;;;;;;4982590;28;20844;-85
2021/10/03 09:21:13;;;;;;;3.80;3.50;;;21.10;92.00;;;;;;4982383;28;20485;-84
2021/10/03 09:23:41;;;;;;;3.63;3.33;;;21.20;92.90;;;;;;4982733;28;20482;-85
2021/10/03 09:26:13;;;;;;;3.97;3.57;;;21.30;93.20;;;;;;4963008;29;20457;-85
2021/10/03 09:28:39;;;;;;;3.57;3.30;;;21.40;91.80;;;;;;4963597;28;20451;-85
2021/10/03 09:31:09;;;;;;;3.67;3.37;;;21.50;91.30;;;;;;4982318;28;20481;-83
2021/10/03 09:33:40;;;;;;;2.90;2.70;;;21.50;92.20;;;;;;4981867;28;20481;-85
2021/10/03 09:36:08;;;;;;;3.60;3.30;;;21.60;92.20;;;;;;4982486;28;20959;-85
2021/10/03 09:38:49;;;;;;;3.47;3.17;;;21.70;92.70;;;;;;4983074;28;20450;-85
2021/10/03 09:41:17;;;;;;;3.43;3.23;;;21.90;92.30;;;;;;4981916;28;20496;-85
2021/10/03 09:43:47;;;;;;;3.60;3.30;;;22.00;92.30;;;;;;4982426;28;20468;-85
2021/10/03 09:46:42;;;;;;;2.90;2.70;;;22.10;92.20;;;;;;4982301;28;20974;-86
2021/10/03 09:49:12;;;;;;;3.57;3.27;;;22.20;91.90;;;;;;4963160;28;20465;-85
2021/10/03 09:51:40;;;;;;;4.10;3.80;;;22.20;92.00;;;;;;4964157;28;20467;-84
2021/10/03 09:54:09;;;;;;;3.77;3.47;;;22.20;91.90;;;;;;4982000;28;20463;-83
2021/10/03 09:56:36;;;;;;;4.33;4.03;;;22.10;91.90;;;;;;4981711;28;20460;-85
2021/10/03 09:59:05;;;;;;;3.00;2.80;;;22.00;92.40;;;;;;4963300;29;20449;-84
2021/10/03 10:01:33;;;;;;;4.33;3.93;;;21.90;92.50;;;;;;4962058;28;20492;-85
2021/10/03 10:04:01;;;;;;;3.30;3.10;;;21.90;92.40;;;;;;4980088;28;20466;-85
2021/10/03 10:06:28;;;;;;;9.40;4.20;;;21.90;91.90;;;;;;4977194;28;20454;-86
2021/10/03 10:08:56;;;;;;;3.33;3.13;;;21.90;92.40;;;;;;4973704;28;20448;-86
2021/10/03 10:11:34;;;;;;;3.87;3.57;;;21.80;92.40;;;;;;4969758;28;20517;-83
2021/10/03 10:14:03;;;;;;;3.67;3.37;;;21.80;92.70;;;;;;4967236;28;20818;-82
2021/10/03 10:16:33;;;;;;;3.10;2.90;;;21.90;93.30;;;;;;4972801;28;20458;-85
2021/10/03 10:19:43;;;;;;;3.90;3.60;;;22.10;92.30;;;;;;4970487;28;20449;-85
2021/10/03 10:22:35;;;;;;;2.83;2.60;;;22.20;92.20;;;;;;4969642;28;20491;-83
2021/10/03 10:25:04;;;;;;;2.80;2.57;;;22.40;92.00;;;;;;4962103;28;20459;-82
2021/10/03 10:28:04;;;;;;;2.90;2.70;;;22.60;91.60;;;;;;4970188;28;20932;-85
2021/10/03 10:30:32;;;;;;;2.90;2.70;;;22.80;92.20;;;;;;4971293;28;20457;-86
2021/10/03 10:33:15;;;;;;;3.60;3.30;;;22.90;90.90;;;;;;4970595;28;20471;-86
2021/10/03 10:35:44;;;;;;;3.73;2.90;;;23.10;90.20;;;;;;4970353;28;20449;-86
2021/10/03 10:38:19;;;;;;;3.53;3.17;;;23.20;90.10;;;;;;4970626;28;20919;-82
2021/10/03 10:40:46;;;;;;;3.03;2.80;;;23.30;89.40;;;;;;4975643;28;21063;-83
2021/10/03 10:43:47;;;;;;;2.77;2.57;;;23.30;89.90;;;;;;4979578;28;20481;-83
2021/10/03 10:46:57;;;;;;;3.20;2.93;;;23.40;90.40;;;;;;4979087;28;20458;-83
2021/10/03 10:49:39;;;;;;;4.00;2.97;;;23.30;90.50;;;;;;4979258;28;20473;-83
2021/10/03 11:02:50;;;;;;;2.80;2.60;;;23.30;90.90;;;;;;4952268;28;20517;-83
2021/10/03 11:05:45;;;;;;;3.63;3.37;;;23.40;89.20;;;;;;4956932;28;20449;-83
2021/10/03 11:08:15;;;;;;;3.13;2.90;;;23.20;90.00;;;;;;4963905;28;20503;-84
2021/10/03 11:11:21;;;;;;;3.17;2.97;;;23.30;90.80;;;;;;4957244;28;20812;-84
2021/10/03 11:13:50;;;;;;;3.20;2.77;;;23.40;91.30;;;;;;4972535;28;20517;-85
2021/10/03 11:16:23;;;;;;;3.30;3.00;;;23.50;90.40;;;;;;4983326;28;20450;-85
2021/10/03 11:18:53;;;;;;;4.10;3.70;;;23.40;90.40;;;;;;4979707;28;20452;-88
2021/10/03 11:21:24;;;;;;;3.23;2.93;;;23.50;91.00;;;;;;4983163;28;21051;-87
2021/10/03 11:23:51;;;;;;;3.20;3.00;;;23.50;91.00;;;;;;4983515;28;20479;-86
2021/10/03 11:26:23;;;;;;;3.40;3.10;;;23.60;89.80;;;;;;4983814;28;20452;-87
2021/10/03 11:28:55;;;;;;;4.47;4.10;;;23.50;90.20;;;;;;4984732;28;20462;-87
2021/10/03 11:31:54;;;;;;;2.80;2.60;;;23.60;90.20;;;;;;4990969;28;20479;-82
2021/10/03 11:34:31;;;;;;;3.20;2.97;;;23.70;90.00;;;;;;4992776;28;20449;-83
2021/10/03 11:36:59;;;;;;;2.63;2.43;;;24.00;90.40;;;;;;4984047;28;20467;-82
2021/10/03 11:39:37;;;;;;;2.87;2.67;;;24.00;87.40;;;;;;4977187;28;20445;-84
2021/10/03 11:42:06;;;;;;;3.30;3.10;;;24.00;89.20;;;;;;4970678;28;20494;-84
2021/10/03 11:44:34;;;;;;;3.50;3.30;;;24.10;88.60;;;;;;4971774;28;20453;-84
2021/10/03 11:47:05;;;;;;;2.80;2.63;;;24.20;89.20;;;;;;4973286;28;20467;-85
2021/10/03 11:49:35;;;;;;;3.33;3.13;;;24.30;89.20;;;;;;4968485;28;20453;-85
2021/10/03 11:52:04;;;;;;;2.70;2.50;;;24.30;90.10;;;;;;4980054;28;20476;-88
2021/10/03 11:54:32;;;;;;;3.10;2.90;;;24.30;88.40;;;;;;4980698;28;20531;-86
2021/10/03 11:57:19;;;;;;;2.93;2.70;;;24.30;87.80;;;;;;4979154;28;20507;-85
2021/10/03 11:59:47;;;;;;;4.37;3.13;;;24.30;88.00;;;;;;4979896;28;20456;-84
2021/10/03 12:02:15;;;;;;;3.30;3.00;;;24.30;88.30;;;;;;4979826;28;20913;-86
2021/10/03 12:04:57;;;;;;;3.53;3.00;;;24.20;89.50;;;;;;4980019;28;20519;-85
2021/10/03 12:07:24;;;;;;;3.63;3.33;;;24.30;90.00;;;;;;4978966;28;20829;-84
2021/10/03 12:09:58;;;;;;;3.00;2.80;;;24.50;90.80;;;;;;4979509;28;20465;-86
2021/10/03 12:13:02;;;;;;;3.43;3.13;;;24.60;90.90;;;;;;4979915;28;20475;-85
2021/10/03 12:15:38;;;;;;;2.70;2.50;;;24.80;90.00;;;;;;4979322;28;20451;-84
2021/10/03 12:18:05;;;;;;;3.20;2.83;;;25.00;90.00;;;;;;4980165;28;20931;-86
2021/10/03 12:20:54;;;;;;;3.13;2.83;;;25.10;83.90;;;;;;4979805;28;20524;-85
2021/10/03 12:23:38;;;;;;;2.83;2.63;;;25.10;84.20;;;;;;4981266;28;20472;-85
2021/10/03 12:26:10;;;;;;;3.20;2.90;;;25.10;82.90;;;;;;4982113;28;20464;-86
2021/10/03 12:29:01;;;;;;;2.77;2.57;;;25.10;84.40;;;;;;4982761;28;20802;-85
2021/10/03 12:31:42;;;;;;;2.83;2.50;;;25.00;87.00;;;;;;4981130;28;20452;-86
2021/10/03 12:34:36;;;;;;;6.03;3.20;;;25.10;86.60;;;;;;4982351;28;20460;-85
2021/10/03 12:37:06;;;;;;;2.60;2.40;;;25.20;87.30;;;;;;4962236;28;20835;-85
2021/10/03 12:39:36;;;;;;;2.70;2.50;;;25.40;86.50;;;;;;4978741;28;20979;-85
2021/10/03 12:42:14;;;;;;;3.73;3.27;;;25.40;85.80;;;;;;4981979;28;20496;-86
2021/10/03 12:44:43;;;;;;;2.73;2.53;;;25.60;85.90;;;;;;4981715;28;20519;-84
2021/10/03 12:47:12;;;;;;;2.90;2.67;;;25.70;85.90;;;;;;4981585;28;20838;-86
2021/10/03 12:49:40;;;;;;;4.37;2.53;;;25.80;84.50;;;;;;4981993;28;20535;-84
2021/10/03 12:52:09;;;;;;;4.70;4.40;;;26.00;85.10;;;;;;4981959;28;20493;-85
2021/10/03 12:54:37;;;;;;;3.40;3.10;;;26.00;86.40;;;;;;4981423;28;20969;-86
2021/10/03 12:57:05;;;;;;;3.70;3.27;;;26.20;84.80;;;;;;4981011;28;20505;-85
2021/10/03 12:59:33;;;;;;;3.30;3.00;;;26.20;84.70;;;;;;4981193;28;20466;-85
2021/10/03 13:01:59;;;;;;;4.50;3.57;;;26.10;82.60;;;;;;4981597;28;20504;-84
2021/10/03 13:04:26;;;;;;;3.47;3.27;;;26.20;84.10;;;;;;4981575;28;20462;-85
2021/10/03 13:06:53;;;;;;;4.43;3.37;;;26.00;83.50;;;;;;4981354;28;20461;-86
2021/10/03 13:09:21;;;;;;;3.30;3.10;;;25.90;85.00;;;;;;4981100;28;20465;-84
2021/10/03 13:11:48;;;;;;;3.17;2.90;;;25.90;84.40;;;;;;4981460;28;20472;-82